Time;durP1;ratioP1;P1;durP2;ratioP2;P2;SDS_P1;SDS_P2;PMS_P1;PMS_P2;Temp;Humidity;BMP_temperature;BMP_pressure;BME280_temperature;BME280_humidity;BME280_pressure;Samples;Min_cycle;Max_cycle;Signal;HPM_P1;HPM_P2
2022/09/20 00:01:24;;;;;;;3.90;3.60;;;;;;;6.95;nan;97343.88;5007123;28;20713;-51
2022/09/20 00:03:54;;;;;;;3.17;3.07;;;;;;;6.94;nan;97344.84;4991580;28;20498;-54
2022/09/20 00:06:24;;;;;;;4.97;3.97;;;;;;;6.88;nan;97334.16;5008133;28;20196;-54
2022/09/20 00:08:53;;;;;;;4.13;3.93;;;;;;;6.95;nan;97343.06;5009494;28;20334;-56
2022/09/20 00:11:23;;;;;;;3.83;3.50;;;;;;;6.95;nan;97325.44;4991673;28;20208;-52
2022/09/20 00:13:53;;;;;;;4.93;3.77;;;;;;;7.02;nan;97348.53;4988799;28;20240;-53
2022/09/20 00:16:25;;;;;;;3.70;3.40;;;;;;;6.94;nan;97344.84;5008460;28;20719;-52
2022/09/20 00:18:55;;;;;;;5.17;3.33;;;;;;;6.92;nan;97338.13;4986016;28;20827;-52
2022/09/20 00:21:25;;;;;;;3.67;3.47;;;;;;;6.92;nan;97344.19;5004791;28;20616;-53
2022/09/20 00:23:55;;;;;;;3.97;3.67;;;;;;;6.81;nan;97353.19;5009233;28;20609;-56
2022/09/20 00:26:24;;;;;;;4.17;3.87;;;;;;;6.71;nan;97338.50;4985350;28;20246;-54
2022/09/20 00:28:53;;;;;;;3.73;3.50;;;;;;;6.85;nan;97350.25;4987350;28;20301;-55
2022/09/20 00:31:21;;;;;;;4.27;3.87;;;;;;;6.87;nan;97345.66;4949571;28;20243;-53
2022/09/20 00:36:40;;;;;;;7.03;3.67;;;;;;;6.81;nan;97337.38;4986692;28;20225;-51
2022/09/20 00:39:12;;;;;;;3.97;3.67;;;;;;;6.77;nan;97329.97;4984342;28;21197;-57
2022/09/20 00:41:40;;;;;;;4.67;4.27;;;;;;;6.75;nan;97340.63;4989760;28;20805;-51
2022/09/20 00:44:43;;;;;;;5.30;4.10;;;;;;;6.71;nan;97335.84;4982654;28;20228;-49
2022/09/20 00:47:16;;;;;;;3.80;3.50;;;;;;;6.72;nan;97333.06;4957803;28;20207;-55
2022/09/20 00:49:46;;;;;;;3.87;3.60;;;;;;;6.66;nan;97339.78;5004095;28;20278;-53
2022/09/20 00:52:15;;;;;;;4.20;3.80;;;;;;;6.61;nan;97335.97;5004736;28;20226;-54
2022/09/20 00:55:40;;;;;;;5.00;4.50;;;;;;;6.56;nan;97338.22;5001730;28;20243;-54
2022/09/20 00:58:09;;;;;;;7.60;4.10;;;;;;;6.47;nan;97334.72;4983266;28;20604;-51
2022/09/20 01:00:39;;;;;;;4.63;4.23;;;;;;;6.50;nan;97339.66;4971288;28;20208;-53
2022/09/20 01:03:09;;;;;;;5.37;4.70;;;;;;;6.49;nan;97335.38;4995391;28;20297;-56
2022/09/20 01:05:40;;;;;;;4.30;4.00;;;;;;;6.47;nan;97332.06;5003039;28;20431;-52
2022/09/20 01:08:09;;;;;;;4.87;4.17;;;;;;;6.52;nan;97340.34;5000739;28;20224;-53
2022/09/20 01:10:38;;;;;;;4.00;3.67;;;;;;;6.48;nan;97339.00;5005195;28;20708;-55
2022/09/20 01:13:07;;;;;;;4.37;4.07;;;;;;;6.48;nan;97342.47;4979589;28;20692;-58
2022/09/20 01:15:37;;;;;;;4.47;4.17;;;;;;;6.45;nan;97334.88;5004623;28;20208;-56
2022/09/20 01:18:07;;;;;;;3.97;3.60;;;;;;;6.49;nan;97341.50;4957304;28;20347;-52
2022/09/20 01:20:37;;;;;;;4.40;4.00;;;;;;;6.46;nan;97341.81;5004170;28;20603;-55
2022/09/20 01:23:22;;;;;;;8.00;4.60;;;;;;;6.37;nan;97346.16;5010485;28;20208;-51
2022/09/20 01:26:35;;;;;;;4.63;4.23;;;;;;;6.36;nan;97347.16;5006532;28;20847;-51
2022/09/20 01:29:11;;;;;;;5.67;3.97;;;;;;;6.40;nan;97338.94;4975908;28;20219;-56
2022/09/20 01:31:45;;;;;;;4.90;4.40;;;;;;;6.40;nan;97339.75;4956066;28;20702;-58
2022/09/20 01:34:16;;;;;;;4.50;4.10;;;;;;;6.47;nan;97340.81;5015274;28;20497;-57
2022/09/20 01:36:50;;;;;;;4.80;4.30;;;;;;;6.47;nan;97342.59;5009440;28;20482;-52
2022/09/20 01:39:26;;;;;;;5.87;4.20;;;;;;;6.55;nan;97339.22;5012421;28;20212;-51
2022/09/20 01:41:58;;;;;;;6.10;4.40;;;;;;;6.62;nan;97333.16;5012139;28;20211;-57
2022/09/20 01:44:35;;;;;;;5.07;4.57;;;;;;;6.62;nan;97340.25;4985249;28;20239;-51
2022/09/20 01:47:11;;;;;;;4.53;4.10;;;;;;;6.65;nan;97339.94;5013874;28;20210;-55
2022/09/20 01:49:46;;;;;;;5.30;3.90;;;;;;;6.58;nan;97344.16;4962033;28;20303;-51
2022/09/20 01:52:42;;;;;;;4.43;4.03;;;;;;;6.61;nan;97336.78;5012905;28;20582;-54
2022/09/20 01:55:55;;;;;;;4.70;4.00;;;;;;;6.55;nan;97337.41;5012986;28;20243;-57
2022/09/20 01:58:54;;;;;;;4.00;3.70;;;;;;;6.56;nan;97332.97;5004732;28;20239;-53
2022/09/20 02:02:11;;;;;;;4.80;4.13;;;;;;;6.52;nan;97329.81;4986720;28;20468;-57
2022/09/20 02:04:55;;;;;;;4.40;4.00;;;;;;;6.45;nan;97339.31;4958507;28;20224;-56
2022/09/20 02:07:39;;;;;;;4.47;4.07;;;;;;;6.36;nan;97334.00;5011175;28;20565;-54
2022/09/20 02:10:20;;;;;;;4.77;4.30;;;;;;;6.30;nan;97341.66;5013695;28;20672;-54
2022/09/20 02:12:54;;;;;;;5.97;4.53;;;;;;;6.30;nan;97341.66;5010832;28;20212;-56
2022/09/20 02:15:36;;;;;;;6.10;4.33;;;;;;;6.36;nan;97339.25;4986824;28;20211;-55
2022/09/20 02:18:16;;;;;;;5.47;4.73;;;;;;;6.30;nan;97337.25;5011178;28;20235;-57
2022/09/20 02:20:52;;;;;;;5.60;5.03;;;;;;;6.33;nan;97330.81;4972527;28;20564;-57
2022/09/20 02:23:33;;;;;;;6.03;5.43;;;;;;;6.37;nan;97338.28;5012386;28;20228;-54
2022/09/20 02:26:11;;;;;;;5.57;4.57;;;;;;;6.46;nan;97336.53;5010913;28;20587;-55
2022/09/20 02:28:53;;;;;;;6.07;4.73;;;;;;;6.44;nan;97341.13;5010080;28;20407;-58
2022/09/20 02:31:31;;;;;;;4.97;4.20;;;;;;;6.42;nan;97340.44;4986706;28;20243;-54
2022/09/20 02:34:33;;;;;;;4.37;3.83;;;;;;;6.37;nan;97332.16;5013656;28;20232;-54
2022/09/20 02:37:17;;;;;;;5.23;4.67;;;;;;;6.46;nan;97346.22;4917185;28;20231;-56
2022/09/20 02:39:53;;;;;;;4.60;4.30;;;;;;;6.45;nan;97347.19;5011391;28;20218;-54
2022/09/20 02:42:25;;;;;;;7.10;4.90;;;;;;;6.45;nan;97340.16;4984557;28;20713;-56
2022/09/20 02:44:59;;;;;;;4.53;4.23;;;;;;;6.47;nan;97345.25;5010160;28;20236;-52
2022/09/20 02:47:33;;;;;;;8.07;4.67;;;;;;;6.50;nan;97345.78;4987929;28;20618;-54
2022/09/20 02:50:20;;;;;;;5.03;4.63;;;;;;;6.58;nan;97347.63;5007436;28;20212;-54
2022/09/20 02:52:57;;;;;;;4.97;4.10;;;;;;;6.53;nan;97352.53;4960673;28;20220;-50
2022/09/20 02:55:35;;;;;;;4.73;4.33;;;;;;;6.45;nan;97344.56;5009822;28;20205;-54
2022/09/20 02:58:15;;;;;;;7.33;4.40;;;;;;;6.53;nan;97352.53;5006233;28;20784;-57
2022/09/20 03:00:49;;;;;;;5.30;4.77;;;;;;;6.42;nan;97334.34;5005950;28;20259;-53
2022/09/20 03:03:24;;;;;;;4.90;4.50;;;;;;;6.49;nan;97357.28;5004938;28;20243;-52
2022/09/20 03:05:59;;;;;;;4.83;4.43;;;;;;;6.54;nan;97358.63;5009775;28;20210;-52
2022/09/20 03:08:34;;;;;;;5.10;4.60;;;;;;;6.49;nan;97364.34;4962473;28;20215;-57
2022/09/20 03:11:10;;;;;;;5.27;4.73;;;;;;;6.49;nan;97365.19;5006682;28;20408;-56
2022/09/20 03:13:50;;;;;;;7.17;4.27;;;;;;;6.55;nan;97363.72;4976498;28;20227;-53
2022/09/20 03:16:22;;;;;;;4.73;4.30;;;;;;;6.44;nan;97345.56;4999332;28;20726;-56
2022/09/20 03:18:57;;;;;;;5.33;4.37;;;;;;;6.61;nan;97359.66;5008157;28;20498;-57
2022/09/20 03:21:37;;;;;;;4.93;4.53;;;;;;;6.68;nan;97363.31;5006910;28;20211;-50
2022/09/20 03:24:13;;;;;;;4.40;4.10;;;;;;;6.72;nan;97358.56;4961041;28;20238;-51
2022/09/20 03:26:47;;;;;;;5.00;4.40;;;;;;;6.79;nan;97362.22;5007710;28;20785;-55
2022/09/20 03:29:27;;;;;;;8.37;4.50;;;;;;;6.80;nan;97364.69;5008845;28;20238;-52
2022/09/20 03:32:05;;;;;;;5.83;4.60;;;;;;;6.90;nan;97353.25;4985193;28;20236;-56
2022/09/20 03:34:42;;;;;;;4.13;3.83;;;;;;;6.99;nan;97349.66;5004815;28;20239;-55
2022/09/20 03:37:36;;;;;;;4.70;4.00;;;;;;;6.93;nan;97352.94;5009067;28;20207;-54
2022/09/20 03:40:40;;;;;;;5.30;4.10;;;;;;;6.98;nan;97361.19;4959542;28;20227;-52
2022/09/20 03:43:22;;;;;;;4.70;4.23;;;;;;;6.93;nan;97351.13;4997575;28;20216;-53
2022/09/20 03:46:04;;;;;;;4.80;4.40;;;;;;;6.88;nan;97363.94;5010388;28;20216;-57
2022/09/20 03:49:02;;;;;;;5.00;4.53;;;;;;;6.89;nan;97362.13;4984285;28;20661;-52
2022/09/20 03:51:35;;;;;;;7.13;4.57;;;;;;;6.95;nan;97357.03;5003982;28;20321;-55
2022/09/20 03:54:57;;;;;;;5.33;4.67;;;;;;;6.90;nan;97358.53;5010862;28;20739;-51
2022/09/20 03:57:50;;;;;;;5.97;4.53;;;;;;;6.94;nan;97354.59;5007046;28;20215;-52
2022/09/20 04:00:24;;;;;;;6.23;4.40;;;;;;;6.95;nan;97351.78;5009641;28;20207;-51
2022/09/20 04:03:03;;;;;;;4.73;4.37;;;;;;;6.94;nan;97354.59;4985553;28;20208;-55
2022/09/20 04:05:40;;;;;;;6.43;4.57;;;;;;;6.98;nan;97350.66;5005650;28;20444;-55
2022/09/20 04:08:18;;;;;;;5.13;3.93;;;;;;;6.98;nan;97349.81;5010714;28;20212;-52
2022/09/20 04:10:58;;;;;;;4.70;3.77;;;;;;;6.85;nan;97342.38;4959388;28;21634;-53
2022/09/20 04:13:37;;;;;;;4.40;4.03;;;;;;;7.00;nan;97353.94;5007548;28;20231;-53
2022/09/20 04:16:22;;;;;;;4.07;3.77;;;;;;;6.99;nan;97346.19;5011876;28;20564;-54
2022/09/20 04:18:55;;;;;;;8.13;4.23;;;;;;;7.02;nan;97357.25;4985333;28;20617;-58
2022/09/20 04:21:29;;;;;;;3.90;3.70;;;;;;;7.06;nan;97363.06;5008067;28;20209;-55
2022/09/20 04:24:02;;;;;;;4.80;4.40;;;;;;;7.07;nan;97360.25;5012327;28;20224;-56
2022/09/20 04:26:33;;;;;;;4.57;3.93;;;;;;;7.05;nan;97361.41;4954827;28;20672;-52
2022/09/20 04:29:15;;;;;;;4.83;4.53;;;;;;;7.00;nan;97366.28;5013785;28;20212;-55
2022/09/20 04:31:49;;;;;;;4.37;3.97;;;;;;;6.90;nan;97363.78;5007465;28;20262;-55
2022/09/20 04:36:27;;;;;;;4.37;3.93;;;;;;;7.07;nan;97373.41;4985708;28;20281;-53
2022/09/20 04:37:24;;;;;;;5.53;3.80;;;;;;;7.01;nan;97371.41;4981465;28;20207;-53
2022/09/20 04:39:59;;;;;;;4.10;3.80;;;;;;;7.00;nan;97380.31;5009175;28;20220;-54
2022/09/20 04:42:43;;;;;;;3.93;3.57;;;;;;;7.02;nan;97378.34;4957438;28;20833;-53
2022/09/20 04:45:29;;;;;;;3.37;3.17;;;;;;;7.00;nan;97382.09;4948684;28;20227;-55
2022/09/20 04:48:36;;;;;;;6.27;4.07;;;;;;;7.02;nan;97383.59;5010483;28;20230;-56
2022/09/20 04:51:50;;;;;;;4.67;3.37;;;;;;;7.04;nan;97379.00;4996730;28;20212;-54
2022/09/20 04:54:53;;;;;;;4.20;3.80;;;;;;;6.88;nan;97363.94;5010197;28;20419;-52
2022/09/20 04:57:38;;;;;;;3.90;3.63;;;;;;;6.99;nan;97380.44;4988256;28;20208;-54
2022/09/20 05:00:09;;;;;;;3.90;3.63;;;;;;;6.83;nan;97375.94;4939107;28;20410;-52
2022/09/20 05:03:06;;;;;;;4.23;3.93;;;;;;;6.68;nan;97375.66;5006654;28;20420;-56
2022/09/20 05:06:00;;;;;;;3.90;3.53;;;;;;;6.62;nan;97372.66;5005766;28;20204;-51
2022/09/20 05:08:52;;;;;;;3.93;3.67;;;;;;;6.46;nan;97375.19;5007012;28;20229;-52
2022/09/20 05:11:36;;;;;;;4.30;4.00;;;;;;;6.38;nan;97375.94;5007802;28;20204;-52
2022/09/20 05:14:23;;;;;;;4.20;3.80;;;;;;;6.33;nan;97392.19;4964248;28;20244;-55
2022/09/20 05:17:14;;;;;;;4.20;3.90;;;;;;;6.41;nan;97385.34;4982671;28;20230;-54
2022/09/20 05:20:01;;;;;;;4.20;3.90;;;;;;;6.57;nan;97395.16;5005584;28;20227;-53
2022/09/20 05:23:08;;;;;;;4.53;3.80;;;;;;;6.73;nan;97397.91;5008169;28;20231;-57
2022/09/20 05:25:45;;;;;;;4.47;4.03;;;;;;;6.86;nan;97405.41;5007664;28;20215;-52
2022/09/20 05:28:19;;;;;;;4.30;3.90;;;;;;;6.94;nan;97404.63;5003824;28;20209;-49
2022/09/20 05:30:49;;;;;;;6.97;4.40;;;;;;;6.90;nan;97404.09;4960324;28;20236;-56
2022/09/20 05:33:22;;;;;;;6.00;4.30;;;;;;;6.98;nan;97408.63;4983867;28;20594;-54
2022/09/20 05:36:02;;;;;;;6.67;4.63;;;;;;;7.10;nan;97417.09;5006068;28;20684;-57
2022/09/20 05:38:36;;;;;;;6.30;5.70;;;;;;;7.10;nan;97417.88;5007813;28;20449;-54
2022/09/20 05:41:09;;;;;;;5.90;5.37;;;;;;;7.18;nan;97418.91;5004527;28;20203;-50
2022/09/20 05:43:48;;;;;;;5.83;5.23;;;;;;;7.27;nan;97419.78;5003745;28;20227;-54
2022/09/20 05:46:19;;;;;;;4.63;4.23;;;;;;;7.34;nan;97407.63;4946815;28;20801;-56
2022/09/20 05:48:56;;;;;;;5.43;4.93;;;;;;;7.33;nan;97413.88;4986859;28;20212;-57
2022/09/20 05:51:35;;;;;;;4.87;4.57;;;;;;;7.34;nan;97421.66;5002161;28;20208;-54
2022/09/20 05:54:28;;;;;;;5.70;5.17;;;;;;;7.35;nan;97407.50;5006851;28;20227;-51
2022/09/20 05:57:08;;;;;;;6.20;5.70;;;;;;;7.42;nan;97417.41;5003105;28;20213;-53
2022/09/20 05:59:46;;;;;;;6.53;5.97;;;;;;;7.47;nan;97421.22;4956793;28;20220;-51
2022/09/20 06:02:35;;;;;;;5.90;5.40;;;;;;;7.51;nan;97412.00;4986207;28;20223;-54
2022/09/20 06:05:10;;;;;;;5.83;5.23;;;;;;;7.59;nan;97411.22;5005983;28;20224;-53
2022/09/20 06:08:01;;;;;;;5.63;5.20;;;;;;;7.56;nan;97419.41;5006678;28;20218;-54
2022/09/20 06:10:47;;;;;;;5.97;5.30;;;;;;;7.50;nan;97402.44;5007216;28;20977;-58
2022/09/20 06:13:30;;;;;;;5.33;4.80;;;;;;;7.41;nan;97403.41;5006395;28;20228;-52
2022/09/20 06:16:00;;;;;;;6.77;5.20;;;;;;;7.49;nan;97419.25;4959843;28;20224;-54
2022/09/20 06:18:32;;;;;;;6.10;5.50;;;;;;;7.44;nan;97418.06;4987748;28;20991;-51
2022/09/20 06:21:09;;;;;;;7.13;5.00;;;;;;;7.38;nan;97433.53;5010310;28;20212;-54
2022/09/20 06:23:39;;;;;;;8.07;5.57;;;;;;;7.32;nan;97420.16;5010995;28;20219;-54
2022/09/20 06:26:10;;;;;;;5.97;5.03;;;;;;;7.33;nan;97424.44;5010115;28;20208;-52
2022/09/20 06:28:41;;;;;;;6.43;5.13;;;;;;;7.31;nan;97432.50;5007742;28;20660;-55
2022/09/20 06:31:10;;;;;;;4.33;3.93;;;;;;;7.29;nan;97431.00;4976337;28;20240;-54
2022/09/20 06:33:44;;;;;;;5.93;3.93;;;;;;;7.44;nan;97426.81;5004679;28;20821;-54
2022/09/20 06:41:54;;;;;;;4.90;3.77;;;;;;;7.70;nan;97436.44;5009100;28;20203;-55
2022/09/20 06:44:23;;;;;;;6.73;4.73;;;;;;;7.72;nan;97429.22;5004810;28;20505;-54
2022/09/20 06:46:53;;;;;;;4.13;3.77;;;;;;;8.08;nan;97430.81;4962147;28;20220;-56
2022/09/20 06:49:22;;;;;;;3.73;3.30;;;;;;;8.42;nan;97423.75;5006964;28;20213;-58
2022/09/20 06:51:51;;;;;;;6.47;4.13;;;;;;;8.69;nan;97422.59;4951777;28;20536;-56
2022/09/20 06:54:21;;;;;;;3.33;3.03;;;;;;;8.80;nan;97413.53;5007906;28;20230;-56
2022/09/20 06:56:51;;;;;;;4.70;2.80;;;;;;;8.98;nan;97422.09;5009197;28;20212;-58
2022/09/20 06:59:19;;;;;;;3.40;3.07;;;;;;;9.16;nan;97407.84;5006454;28;20231;-54
2022/09/20 07:01:48;;;;;;;5.97;3.07;;;;;;;9.33;nan;97395.41;5008250;28;20216;-56
2022/09/20 07:04:16;;;;;;;3.50;2.57;;;;;;;9.68;nan;97408.34;5009064;28;20810;-55
2022/09/20 07:06:44;;;;;;;2.93;2.37;;;;;;;10.13;nan;97398.81;4959647;28;21048;-59
2022/09/20 07:09:12;;;;;;;3.47;3.03;;;;;;;10.46;nan;97403.06;5009519;28;20220;-54
2022/09/20 07:11:43;;;;;;;3.43;2.20;;;;;;;10.70;nan;97398.56;5004841;28;20440;-56
2022/09/20 07:14:12;;;;;;;2.60;2.30;;;;;;;10.57;nan;97410.59;5010908;28;20224;-55
2022/09/20 07:16:40;;;;;;;4.17;2.70;;;;;;;10.09;nan;97401.97;5005875;28;20353;-51
2022/09/20 07:19:09;;;;;;;2.60;2.00;;;;;;;9.85;nan;97395.84;5004469;28;20209;-54
2022/09/20 07:21:37;;;;;;;3.13;2.03;;;;;;;9.98;nan;97409.31;5007006;28;20239;-57
2022/09/20 07:24:05;;;;;;;3.63;3.00;;;;;;;9.80;nan;97414.03;4963183;28;20239;-54
2022/09/20 07:26:34;;;;;;;4.60;1.97;;;;;;;9.57;nan;97414.81;5004264;28;20212;-58
2022/09/20 07:29:05;;;;;;;2.80;2.50;;;;;;;9.46;nan;97428.41;5006247;28;20211;-56
2022/09/20 07:31:33;;;;;;;5.63;2.40;;;;;;;9.36;nan;97424.16;5006335;28;20248;-52
2022/09/20 07:34:02;;;;;;;6.30;2.70;;;;;;;9.45;nan;97427.59;5007006;28;20223;-56
2022/09/20 07:36:30;;;;;;;6.20;2.37;;;;;;;9.62;nan;97424.88;5005077;28;20213;-53
2022/09/20 07:38:58;;;;;;;3.93;2.53;;;;;;;9.54;nan;97425.75;4963593;28;20227;-57
2022/09/20 07:41:31;;;;;;;2.63;2.10;;;;;;;9.91;nan;97410.19;5006523;28;20226;-55
2022/09/20 07:44:19;;;;;;;2.70;2.17;;;;;;;10.26;nan;97426.53;5007771;28;20885;-56
2022/09/20 07:46:50;;;;;;;4.00;1.90;;;;;;;10.40;nan;97428.44;5007739;28;20218;-57
2022/09/20 07:49:18;;;;;;;2.77;1.97;;;;;;;10.40;nan;97428.44;5009959;28;20208;-55
2022/09/20 07:51:46;;;;;;;2.87;2.50;;;;;;;10.31;nan;97426.00;5006456;28;20212;-57
2022/09/20 07:54:15;;;;;;;3.40;3.10;;;;;;;10.03;nan;97429.16;4987736;28;20224;-54
2022/09/20 07:56:44;;;;;;;2.63;2.20;;;;;;;10.03;nan;97445.03;4986491;28;20694;-54
2022/09/20 07:59:13;;;;;;;6.87;2.00;;;;;;;9.79;nan;97433.56;5006763;28;20684;-52
2022/09/20 08:01:42;;;;;;;2.37;2.10;;;;;;;10.34;nan;97431.75;5007304;28;20251;-56
2022/09/20 08:04:12;;;;;;;3.03;1.90;;;;;;;10.55;nan;97435.63;5007756;28;20924;-53
2022/09/20 08:06:41;;;;;;;4.70;3.33;;;;;;;10.26;nan;97437.13;5006628;28;20489;-55
2022/09/20 08:09:10;;;;;;;5.40;2.60;;;;;;;10.22;nan;97433.19;5006348;28;20576;-56
2022/09/20 08:11:40;;;;;;;5.23;2.37;;;;;;;10.59;nan;97439.56;4972634;28;20305;-60
2022/09/20 08:14:12;;;;;;;4.30;2.63;;;;;;;10.75;nan;97438.59;5007387;28;20277;-59
2022/09/20 08:16:43;;;;;;;3.50;2.97;;;;;;;10.76;nan;97445.56;5004279;28;20511;-54
2022/09/20 08:19:17;;;;;;;4.20;2.93;;;;;;;11.12;nan;97444.91;5006562;28;20560;-53
2022/09/20 08:21:45;;;;;;;5.80;3.30;;;;;;;11.47;nan;97436.41;5007539;28;20485;-58
2022/09/20 08:24:15;;;;;;;14.27;3.50;;;;;;;11.02;nan;97438.19;4993202;28;20229;-54
2022/09/20 08:26:43;;;;;;;5.77;2.83;;;;;;;10.68;nan;97440.34;4987151;28;20435;-53
2022/09/20 08:29:13;;;;;;;2.47;2.27;;;;;;;11.17;nan;97432.91;5005985;28;20215;-55
2022/09/20 08:31:42;;;;;;;5.47;2.57;;;;;;;11.36;nan;97431.56;5007975;28;20797;-52
2022/09/20 08:34:12;;;;;;;4.03;2.43;;;;;;;11.09;nan;97441.78;5008228;28;20560;-52
2022/09/20 08:36:45;;;;;;;5.57;3.17;;;;;;;10.68;nan;97435.84;5003772;28;20238;-52
2022/09/20 08:39:14;;;;;;;4.07;2.50;;;;;;;10.63;nan;97426.78;4991265;28;20205;-54
2022/09/20 08:42:11;;;;;;;4.23;3.43;;;;;;;10.76;nan;97440.25;5008783;28;20255;-55
2022/09/20 08:44:49;;;;;;;3.47;3.00;;;;;;;11.37;nan;97439.34;5004995;28;20239;-56
2022/09/20 08:47:27;;;;;;;2.10;1.90;;;;;;;11.75;nan;97437.59;5001556;28;20769;-53
2022/09/20 08:49:55;;;;;;;2.70;2.50;;;;;;;11.60;nan;97440.25;5008518;28;20204;-53
2022/09/20 08:52:30;;;;;;;4.07;2.00;;;;;;;11.23;nan;97440.97;5004218;28;20687;-51
2022/09/20 08:55:04;;;;;;;1.90;1.60;;;;;;;10.89;nan;97441.47;5007009;28;20309;-51
2022/09/20 08:57:35;;;;;;;3.00;1.90;;;;;;;10.58;nan;97440.56;4931124;28;20231;-53
2022/09/20 09:00:05;;;;;;;2.30;1.80;;;;;;;10.88;nan;97445.13;4992393;28;20710;-54
2022/09/20 09:02:34;;;;;;;7.90;2.00;;;;;;;11.44;nan;97445.56;4990435;28;20204;-53
2022/09/20 09:05:03;;;;;;;2.00;1.63;;;;;;;11.76;nan;97433.94;5006804;28;20232;-58
2022/09/20 09:07:33;;;;;;;2.00;1.30;;;;;;;10.77;nan;97441.91;4988566;28;20688;-53
2022/09/20 09:10:01;;;;;;;3.57;2.13;;;;;;;10.84;nan;97434.06;5002526;28;20216;-56
2022/09/20 09:12:31;;;;;;;2.60;2.13;;;;;;;11.48;nan;97443.34;5010969;28;20215;-54
2022/09/20 09:15:02;;;;;;;2.07;1.83;;;;;;;11.72;nan;97426.31;4958839;28;20311;-50
2022/09/20 09:17:30;;;;;;;1.90;1.40;;;;;;;11.77;nan;97436.38;5003641;28;20779;-55
2022/09/20 09:20:00;;;;;;;3.77;1.87;;;;;;;11.12;nan;97438.75;5004518;28;20420;-53
2022/09/20 09:22:35;;;;;;;1.40;1.30;;;;;;;11.10;nan;97438.13;4986087;28;20224;-53
2022/09/20 09:25:22;;;;;;;1.33;1.23;;;;;;;11.41;nan;97431.84;5002497;28;20331;-56
2022/09/20 09:27:55;;;;;;;1.90;1.33;;;;;;;11.48;nan;97431.94;5002693;28;20323;-55
2022/09/20 09:30:26;;;;;;;1.60;1.23;;;;;;;11.32;nan;97422.31;4960972;28;20232;-52
2022/09/20 09:33:21;;;;;;;2.87;1.60;;;;;;;11.66;nan;97424.41;5003497;28;20213;-58
2022/09/20 09:35:55;;;;;;;4.43;1.43;;;;;;;11.76;nan;97420.66;5002368;28;20231;-56
2022/09/20 09:38:25;;;;;;;3.10;1.50;;;;;;;11.88;nan;97400.56;4988203;28;20224;-54
2022/09/20 09:40:56;;;;;;;1.93;1.20;;;;;;;12.21;nan;97408.13;4996526;28;20311;-55
2022/09/20 09:43:28;;;;;;;2.67;1.10;;;;;;;12.37;nan;97409.69;5009801;28;20628;-51
2022/09/20 09:46:16;;;;;;;2.83;1.47;;;;;;;12.48;nan;97412.84;4964136;28;20220;-55
2022/09/20 09:48:48;;;;;;;3.43;1.47;;;;;;;12.63;nan;97413.59;5006380;28;20224;-53
2022/09/20 09:51:19;;;;;;;1.37;1.00;;;;;;;12.86;nan;97408.03;5011996;28;20207;-51
2022/09/20 09:53:49;;;;;;;1.67;0.90;;;;;;;12.52;nan;97411.47;4990556;28;20348;-50
2022/09/20 09:56:35;;;;;;;1.17;1.07;;;;;;;12.27;nan;97407.34;5010678;28;20239;-55
2022/09/20 09:59:24;;;;;;;2.07;1.60;;;;;;;12.71;nan;97407.31;5009055;28;20349;-57
2022/09/20 10:01:58;;;;;;;1.53;1.17;;;;;;;12.82;nan;97406.78;4958015;28;20251;-55
2022/09/20 10:04:31;;;;;;;2.43;1.00;;;;;;;12.41;nan;97403.00;5012096;28;20232;-58
2022/09/20 10:07:04;;;;;;;3.20;1.73;;;;;;;12.30;nan;97398.16;5008056;28;20228;-56
2022/09/20 10:09:45;;;;;;;4.07;1.67;;;;;;;12.22;nan;97407.09;4991448;28;20211;-54
2022/09/20 10:12:29;;;;;;;1.30;1.20;;;;;;;12.10;nan;97401.47;5008949;28;20209;-58
2022/09/20 10:15:07;;;;;;;2.47;1.27;;;;;;;11.97;nan;97406.59;5008568;28;20437;-58
2022/09/20 10:17:47;;;;;;;1.90;1.67;;;;;;;11.97;nan;97406.59;4960710;28;20237;-55
2022/09/20 10:20:32;;;;;;;1.83;1.47;;;;;;;11.72;nan;97393.66;5012525;28;20204;-58
2022/09/20 10:23:09;;;;;;;1.27;1.20;;;;;;;11.72;nan;97398.97;5007365;28;20255;-55
2022/09/20 10:26:04;;;;;;;2.07;1.23;;;;;;;11.91;nan;97400.19;4988498;28;20773;-53
2022/09/20 10:28:49;;;;;;;1.57;1.10;;;;;;;12.40;nan;97392.53;5011738;28;20225;-54
2022/09/20 10:31:28;;;;;;;1.27;1.17;;;;;;;12.59;nan;97394.56;5012525;28;20559;-50
2022/09/20 10:34:14;;;;;;;2.30;1.60;;;;;;;12.86;nan;97391.28;4968608;28;20380;-54
2022/09/20 10:36:46;;;;;;;1.30;1.03;;;;;;;12.86;nan;97391.28;5005727;28;20294;-52
2022/09/20 10:39:19;;;;;;;3.33;1.70;;;;;;;12.62;nan;97396.00;4991601;28;20216;-56
2022/09/20 10:44:55;;;;;;;1.57;1.20;;;;;;;13.20;nan;97386.16;5004481;28;20229;-53
2022/09/20 10:47:28;;;;;;;2.83;1.53;;;;;;;13.18;nan;97386.38;5009565;28;20216;-55
2022/09/20 10:50:04;;;;;;;2.67;1.60;;;;;;;13.32;nan;97393.41;4967519;28;20217;-55
2022/09/20 10:52:53;;;;;;;3.50;1.60;;;;;;;13.66;nan;97390.97;5006659;28;20200;-53
2022/09/20 10:55:30;;;;;;;3.77;1.43;;;;;;;13.69;nan;97390.56;4991854;28;20228;-52
2022/09/20 10:58:26;;;;;;;4.80;1.40;;;;;;;13.01;nan;97388.53;5004480;28;20514;-56
2022/09/20 11:01:01;;;;;;;3.00;1.40;;;;;;;12.85;nan;97397.63;5005461;28;20216;-55
2022/09/20 11:03:39;;;;;;;1.97;1.50;;;;;;;12.80;nan;97402.69;4962370;28;20763;-52
2022/09/20 11:06:16;;;;;;;1.67;1.57;;;;;;;12.73;nan;97408.78;4933970;28;20904;-50
2022/09/20 11:08:49;;;;;;;1.83;1.37;;;;;;;11.92;nan;97401.84;5006243;28;20212;-53
2022/09/20 11:11:20;;;;;;;1.97;1.60;;;;;;;11.94;nan;97401.66;5006886;28;20357;-57
2022/09/20 11:13:57;;;;;;;1.03;1.03;;;;;;;12.78;nan;97407.38;4988370;28;20231;-54
2022/09/20 11:16:29;;;;;;;1.10;1.00;;;;;;;13.64;nan;97401.00;5000215;28;20220;-56
2022/09/20 11:19:00;;;;;;;2.77;1.10;;;;;;;14.21;nan;97395.41;5008709;28;20448;-55
2022/09/20 11:21:35;;;;;;;1.60;1.20;;;;;;;13.85;nan;97393.88;4942232;28;20225;-58
2022/09/20 11:24:06;;;;;;;3.10;1.10;;;;;;;12.93;nan;97413.44;5006322;28;20882;-52
2022/09/20 11:26:38;;;;;;;1.37;1.27;;;;;;;10.74;nan;97444.91;5009443;28;20420;-53
2022/09/20 11:29:19;;;;;;;3.40;1.40;;;;;;;9.46;nan;97449.56;4986555;28;20497;-56
2022/09/20 11:31:51;;;;;;;1.63;1.60;;;;;;;9.38;nan;97434.56;5006210;28;20248;-53
2022/09/20 11:34:24;;;;;;;1.30;1.23;;;;;;;9.38;nan;97467.09;5007138;28;20896;-52
2022/09/20 11:36:56;;;;;;;4.50;1.93;;;;;;;9.16;nan;97471.28;4956146;28;20767;-52
2022/09/20 11:39:29;;;;;;;3.37;1.90;;;;;;;8.97;nan;97470.66;5005874;28;20684;-50
2022/09/20 11:41:59;;;;;;;3.63;1.90;;;;;;;8.99;nan;97465.19;5006332;28;20227;-51
2022/09/20 11:44:27;;;;;;;2.07;1.97;;;;;;;9.13;nan;97463.69;4992734;28;20259;-53
2022/09/20 11:47:01;;;;;;;2.30;2.03;;;;;;;9.37;nan;97460.16;5005645;28;20205;-50
2022/09/20 11:49:34;;;;;;;2.60;2.40;;;;;;;9.61;nan;97454.97;5008058;28;20216;-55
2022/09/20 11:52:17;;;;;;;4.80;2.43;;;;;;;9.83;nan;97451.59;4938676;28;20696;-52
2022/09/20 11:54:58;;;;;;;3.17;1.83;;;;;;;10.08;nan;97445.34;5004956;28;20235;-49
2022/09/20 11:57:27;;;;;;;3.17;2.10;;;;;;;10.76;nan;97450.03;5004943;28;20626;-47
2022/09/20 11:59:57;;;;;;;1.63;1.53;;;;;;;11.47;nan;97440.91;4992286;28;20228;-51
2022/09/20 12:02:34;;;;;;;2.30;1.33;;;;;;;11.89;nan;97423.47;5004815;28;20616;-53
2022/09/20 12:05:04;;;;;;;1.23;1.13;;;;;;;11.56;nan;97427.34;5005696;28;20739;-47
2022/09/20 12:07:35;;;;;;;1.57;1.17;;;;;;;11.56;nan;97426.53;4938987;28;20227;-54
2022/09/20 12:10:06;;;;;;;1.50;1.40;;;;;;;11.78;nan;97413.31;5000970;28;20310;-50
2022/09/20 12:12:38;;;;;;;1.30;1.20;;;;;;;12.20;nan;97411.78;5008955;28;20204;-52
2022/09/20 12:15:08;;;;;;;2.13;1.40;;;;;;;12.61;nan;97420.13;4987706;28;20239;-56
2022/09/20 12:18:08;;;;;;;1.37;1.27;;;;;;;12.74;nan;97404.28;5011616;28;20212;-54
2022/09/20 12:21:14;;;;;;;3.43;1.33;;;;;;;12.76;nan;97414.72;4987362;28;20221;-53
2022/09/20 12:24:02;;;;;;;4.93;1.60;;;;;;;12.01;nan;97426.50;4938742;28;20238;-55
2022/09/20 12:26:42;;;;;;;4.53;2.60;;;;;;;10.13;nan;97421.81;5006557;28;20390;-55
2022/09/20 12:29:53;;;;;;;2.50;1.73;;;;;;;9.23;nan;97450.31;4992878;28;20834;-51
2022/09/20 12:32:41;;;;;;;1.20;1.20;;;;;;;9.02;nan;97458.78;5010685;28;20830;-56
2022/09/20 12:36:00;;;;;;;2.73;1.70;;;;;;;8.93;nan;97465.88;5004699;28;20238;-54
2022/09/20 12:38:36;;;;;;;3.17;2.73;;;;;;;8.88;nan;97455.78;4964568;28;20209;-53
2022/09/20 12:41:11;;;;;;;2.33;1.63;;;;;;;9.09;nan;97457.09;4990504;28;20419;-50
2022/09/20 12:43:49;;;;;;;1.70;1.60;;;;;;;9.48;nan;97458.19;5007083;28;20242;-50
2022/09/20 12:46:21;;;;;;;1.70;1.13;;;;;;;9.88;nan;97453.72;4987409;28;20212;-50
2022/09/20 12:48:49;;;;;;;1.73;1.63;;;;;;;10.90;nan;97457.19;5006192;28;20220;-50
2022/09/20 12:54:06;;;;;;;2.00;1.10;;;;;;;14.48;nan;97417.59;4914664;28;23106;-54
2022/09/20 12:56:36;;;;;;;0.80;0.80;;;;;;;14.59;nan;97418.84;4990083;28;20212;-56
2022/09/20 12:59:06;;;;;;;2.63;1.20;;;;;;;15.93;nan;97418.88;5002724;28;20451;-50